sensor_id;sensor_type;location;lat;lon;timestamp;temperature;humidity
10123;DHT22;5101;49.038;8.710;2022-11-20T00:01:16;6.50;99.90
10123;DHT22;5101;49.038;8.710;2022-11-20T00:03:42;6.50;99.90
10123;DHT22;5101;49.038;8.710;2022-11-20T00:06:11;6.50;99.90
10123;DHT22;5101;49.038;8.710;2022-11-20T00:08:37;6.60;99.90
10123;DHT22;5101;49.038;8.710;2022-11-20T00:11:10;6.70;99.90
10123;DHT22;5101;49.038;8.710;2022-11-20T00:13:36;6.60;99.90
10123;DHT22;5101;49.038;8.710;2022-11-20T00:16:04;6.60;99.90
10123;DHT22;5101;49.038;8.710;2022-11-20T00:18:32;6.60;99.90
10123;DHT22;5101;49.038;8.710;2022-11-20T00:21:02;6.60;99.90
10123;DHT22;5101;49.038;8.710;2022-11-20T00:23:28;6.60;99.90
10123;DHT22;5101;49.038;8.710;2022-11-20T00:25:54;6.90;99.90
10123;DHT22;5101;49.038;8.710;2022-11-20T00:28:19;6.60;99.90
10123;DHT22;5101;49.038;8.710;2022-11-20T00:30:45;6.60;99.90
10123;DHT22;5101;49.038;8.710;2022-11-20T00:33:10;6.90;99.90
10123;DHT22;5101;49.038;8.710;2022-11-20T00:35:36;6.60;99.90
10123;DHT22;5101;49.038;8.710;2022-11-20T00:38:01;6.60;99.90
10123;DHT22;5101;49.038;8.710;2022-11-20T00:40:27;6.60;99.90
10123;DHT22;5101;49.038;8.710;2022-11-20T00:42:52;6.60;99.90
10123;DHT22;5101;49.038;8.710;2022-11-20T00:45:17;6.70;99.90
10123;DHT22;5101;49.038;8.710;2022-11-20T00:47:43;6.70;99.90
10123;DHT22;5101;49.038;8.710;2022-11-20T00:50:08;6.70;99.90
10123;DHT22;5101;49.038;8.710;2022-11-20T00:52:34;6.70;99.90
10123;DHT22;5101;49.038;8.710;2022-11-20T00:54:59;6.70;99.90
10123;DHT22;5101;49.038;8.710;2022-11-20T00:57:25;6.90;99.90
10123;DHT22;5101;49.038;8.710;2022-11-20T00:59:50;6.70;99.90
10123;DHT22;5101;49.038;8.710;2022-11-20T01:02:16;6.70;99.90
10123;DHT22;5101;49.038;8.710;2022-11-20T01:04:42;6.70;99.90
10123;DHT22;5101;49.038;8.710;2022-11-20T01:07:07;6.70;99.90
10123;DHT22;5101;49.038;8.710;2022-11-20T01:09:33;6.90;99.90
10123;DHT22;5101;49.038;8.710;2022-11-20T01:11:58;6.70;99.90
10123;DHT22;5101;49.038;8.710;2022-11-20T01:14:24;6.70;99.90
10123;DHT22;5101;49.038;8.710;2022-11-20T01:16:50;6.70;99.90
10123;DHT22;5101;49.038;8.710;2022-11-20T01:19:21;6.70;99.90
10123;DHT22;5101;49.038;8.710;2022-11-20T01:21:52;6.70;99.90
10123;DHT22;5101;49.038;8.710;2022-11-20T01:24:20;6.80;99.90
10123;DHT22;5101;49.038;8.710;2022-11-20T01:26:47;6.80;99.90
10123;DHT22;5101;49.038;8.710;2022-11-20T01:29:16;6.90;99.90
10123;DHT22;5101;49.038;8.710;2022-11-20T01:31:42;6.80;99.90
10123;DHT22;5101;49.038;8.710;2022-11-20T01:34:13;7.00;99.90
10123;DHT22;5101;49.038;8.710;2022-11-20T01:36:40;7.00;99.90
10123;DHT22;5101;49.038;8.710;2022-11-20T01:39:10;7.10;99.90
10123;DHT22;5101;49.038;8.710;2022-11-20T01:41:36;6.90;99.90
10123;DHT22;5101;49.038;8.710;2022-11-20T01:44:39;7.20;99.90
10123;DHT22;5101;49.038;8.710;2022-11-20T01:47:08;7.20;99.90
10123;DHT22;5101;49.038;8.710;2022-11-20T01:49:38;7.20;99.90
10123;DHT22;5101;49.038;8.710;2022-11-20T01:52:10;7.30;99.90
10123;DHT22;5101;49.038;8.710;2022-11-20T01:54:42;7.00;99.90
10123;DHT22;5101;49.038;8.710;2022-11-20T01:57:10;7.10;99.90
10123;DHT22;5101;49.038;8.710;2022-11-20T01:59:40;7.40;99.90
10123;DHT22;5101;49.038;8.710;2022-11-20T02:02:08;7.10;99.90
10123;DHT22;5101;49.038;8.710;2022-11-20T02:04:34;7.10;99.90
10123;DHT22;5101;49.038;8.710;2022-11-20T02:07:01;7.10;99.90
10123;DHT22;5101;49.038;8.710;2022-11-20T02:09:27;7.20;99.90
10123;DHT22;5101;49.038;8.710;2022-11-20T02:11:53;7.20;99.90
10123;DHT22;5101;49.038;8.710;2022-11-20T02:14:19;7.20;99.90
10123;DHT22;5101;49.038;8.710;2022-11-20T02:16:47;7.20;99.90
10123;DHT22;5101;49.038;8.710;2022-11-20T02:22:10;7.50;99.90
10123;DHT22;5101;49.038;8.710;2022-11-20T02:24:39;7.40;99.90
10123;DHT22;5101;49.038;8.710;2022-11-20T02:27:09;7.40;99.90
10123;DHT22;5101;49.038;8.710;2022-11-20T02:29:53;7.40;99.90
10123;DHT22;5101;49.038;8.710;2022-11-20T02:32:32;7.50;99.90
10123;DHT22;5101;49.038;8.710;2022-11-20T02:35:07;7.50;99.90
10123;DHT22;5101;49.038;8.710;2022-11-20T02:37:37;7.60;99.90
10123;DHT22;5101;49.038;8.710;2022-11-20T02:40:04;7.60;99.90
10123;DHT22;5101;49.038;8.710;2022-11-20T02:42:30;7.60;99.90
10123;DHT22;5101;49.038;8.710;2022-11-20T02:44:55;7.60;99.90
10123;DHT22;5101;49.038;8.710;2022-11-20T02:47:20;7.70;99.90
10123;DHT22;5101;49.038;8.710;2022-11-20T02:49:46;7.70;99.90
10123;DHT22;5101;49.038;8.710;2022-11-20T02:52:11;7.70;99.90
10123;DHT22;5101;49.038;8.710;2022-11-20T02:54:37;7.70;99.90
10123;DHT22;5101;49.038;8.710;2022-11-20T02:57:02;7.70;99.90
10123;DHT22;5101;49.038;8.710;2022-11-20T02:59:28;7.80;99.90
10123;DHT22;5101;49.038;8.710;2022-11-20T03:01:53;7.80;99.90
10123;DHT22;5101;49.038;8.710;2022-11-20T03:04:19;7.80;99.90
10123;DHT22;5101;49.038;8.710;2022-11-20T03:06:45;7.80;99.90
10123;DHT22;5101;49.038;8.710;2022-11-20T03:09:10;7.80;99.90
10123;DHT22;5101;49.038;8.710;2022-11-20T03:11:36;7.90;99.90
10123;DHT22;5101;49.038;8.710;2022-11-20T03:14:03;7.90;99.90
10123;DHT22;5101;49.038;8.710;2022-11-20T03:16:30;7.90;99.90
10123;DHT22;5101;49.038;8.710;2022-11-20T03:18:55;8.00;99.90
10123;DHT22;5101;49.038;8.710;2022-11-20T03:21:21;7.90;99.90
10123;DHT22;5101;49.038;8.710;2022-11-20T03:23:47;7.90;99.90
10123;DHT22;5101;49.038;8.710;2022-11-20T03:26:16;7.90;99.90
10123;DHT22;5101;49.038;8.710;2022-11-20T03:28:47;7.90;99.90
10123;DHT22;5101;49.038;8.710;2022-11-20T03:31:14;7.90;99.90
10123;DHT22;5101;49.038;8.710;2022-11-20T03:33:41;7.90;99.90
10123;DHT22;5101;49.038;8.710;2022-11-20T03:36:10;7.90;99.90
10123;DHT22;5101;49.038;8.710;2022-11-20T03:38:36;7.90;99.90
10123;DHT22;5101;49.038;8.710;2022-11-20T03:41:04;7.90;99.90
10123;DHT22;5101;49.038;8.710;2022-11-20T03:43:30;7.90;99.90
10123;DHT22;5101;49.038;8.710;2022-11-20T03:45:56;8.00;99.90
10123;DHT22;5101;49.038;8.710;2022-11-20T03:48:22;8.00;99.90
10123;DHT22;5101;49.038;8.710;2022-11-20T03:50:47;7.90;99.90
10123;DHT22;5101;49.038;8.710;2022-11-20T03:53:16;8.00;99.90
10123;DHT22;5101;49.038;8.710;2022-11-20T03:55:42;8.00;99.90
10123;DHT22;5101;49.038;8.710;2022-11-20T03:58:08;8.00;99.90
10123;DHT22;5101;49.038;8.710;2022-11-20T04:00:34;8.00;99.90
10123;DHT22;5101;49.038;8.710;2022-11-20T04:03:01;8.00;99.90
10123;DHT22;5101;49.038;8.710;2022-11-20T04:05:26;8.00;99.90
10123;DHT22;5101;49.038;8.710;2022-11-20T04:07:52;8.00;99.90
10123;DHT22;5101;49.038;8.710;2022-11-20T04:10:18;8.00;99.90
10123;DHT22;5101;49.038;8.710;2022-11-20T04:12:43;8.00;99.90
10123;DHT22;5101;49.038;8.710;2022-11-20T04:15:09;8.00;99.90
10123;DHT22;5101;49.038;8.710;2022-11-20T04:17:34;8.00;99.90
10123;DHT22;5101;49.038;8.710;2022-11-20T04:20:00;8.10;99.90
10123;DHT22;5101;49.038;8.710;2022-11-20T04:22:26;8.10;99.90
10123;DHT22;5101;49.038;8.710;2022-11-20T04:24:52;8.10;99.90
10123;DHT22;5101;49.038;8.710;2022-11-20T04:27:17;8.10;99.90
10123;DHT22;5101;49.038;8.710;2022-11-20T04:29:43;8.10;99.90
10123;DHT22;5101;49.038;8.710;2022-11-20T04:32:08;8.10;99.90
10123;DHT22;5101;49.038;8.710;2022-11-20T04:34:34;8.00;99.90
10123;DHT22;5101;49.038;8.710;2022-11-20T04:37:00;8.10;99.90
10123;DHT22;5101;49.038;8.710;2022-11-20T04:39:25;8.00;99.90
10123;DHT22;5101;49.038;8.710;2022-11-20T04:41:51;8.10;99.90
10123;DHT22;5101;49.038;8.710;2022-11-20T04:44:36;8.10;99.90
10123;DHT22;5101;49.038;8.710;2022-11-20T04:47:02;8.10;99.90
10123;DHT22;5101;49.038;8.710;2022-11-20T04:49:27;8.10;99.90
10123;DHT22;5101;49.038;8.710;2022-11-20T04:51:53;8.10;99.90
10123;DHT22;5101;49.038;8.710;2022-11-20T04:54:19;8.10;99.90
10123;DHT22;5101;49.038;8.710;2022-11-20T04:56:47;8.10;99.90
10123;DHT22;5101;49.038;8.710;2022-11-20T04:59:13;8.10;99.90
10123;DHT22;5101;49.038;8.710;2022-11-20T05:01:39;8.10;99.90
10123;DHT22;5101;49.038;8.710;2022-11-20T05:04:04;8.10;99.90
10123;DHT22;5101;49.038;8.710;2022-11-20T05:06:31;8.20;99.90
10123;DHT22;5101;49.038;8.710;2022-11-20T05:08:56;8.20;99.90
10123;DHT22;5101;49.038;8.710;2022-11-20T05:11:22;8.20;99.90
10123;DHT22;5101;49.038;8.710;2022-11-20T05:13:48;8.10;99.90
10123;DHT22;5101;49.038;8.710;2022-11-20T05:16:16;8.20;99.90
10123;DHT22;5101;49.038;8.710;2022-11-20T05:18:42;8.20;99.90
10123;DHT22;5101;49.038;8.710;2022-11-20T05:21:08;8.20;99.90
10123;DHT22;5101;49.038;8.710;2022-11-20T05:23:34;8.20;99.90
10123;DHT22;5101;49.038;8.710;2022-11-20T05:26:00;8.20;99.90
10123;DHT22;5101;49.038;8.710;2022-11-20T05:28:28;8.20;99.90
10123;DHT22;5101;49.038;8.710;2022-11-20T05:30:54;8.30;99.90
10123;DHT22;5101;49.038;8.710;2022-11-20T05:33:20;8.30;99.90
10123;DHT22;5101;49.038;8.710;2022-11-20T05:35:46;8.30;99.90
10123;DHT22;5101;49.038;8.710;2022-11-20T05:38:13;8.30;99.90
10123;DHT22;5101;49.038;8.710;2022-11-20T05:40:39;8.30;99.90
10123;DHT22;5101;49.038;8.710;2022-11-20T05:43:04;8.30;99.90
10123;DHT22;5101;49.038;8.710;2022-11-20T05:45:30;8.30;99.90
10123;DHT22;5101;49.038;8.710;2022-11-20T05:47:58;8.30;99.90
10123;DHT22;5101;49.038;8.710;2022-11-20T05:50:25;8.30;99.90
10123;DHT22;5101;49.038;8.710;2022-11-20T05:52:51;8.30;99.90
10123;DHT22;5101;49.038;8.710;2022-11-20T05:55:16;8.30;99.90
10123;DHT22;5101;49.038;8.710;2022-11-20T05:57:42;8.30;99.90
10123;DHT22;5101;49.038;8.710;2022-11-20T06:00:08;8.30;99.90
10123;DHT22;5101;49.038;8.710;2022-11-20T06:02:35;8.30;99.90
10123;DHT22;5101;49.038;8.710;2022-11-20T06:05:01;8.30;99.90
10123;DHT22;5101;49.038;8.710;2022-11-20T06:07:26;8.30;99.90
10123;DHT22;5101;49.038;8.710;2022-11-20T06:09:52;8.30;99.90
10123;DHT22;5101;49.038;8.710;2022-11-20T06:12:17;8.30;99.90
10123;DHT22;5101;49.038;8.710;2022-11-20T06:14:43;8.30;99.90
10123;DHT22;5101;49.038;8.710;2022-11-20T06:17:08;8.30;99.90
10123;DHT22;5101;49.038;8.710;2022-11-20T06:19:34;8.60;99.90
10123;DHT22;5101;49.038;8.710;2022-11-20T06:21:59;8.40;99.90
10123;DHT22;5101;49.038;8.710;2022-11-20T06:24:24;8.40;99.90
10123;DHT22;5101;49.038;8.710;2022-11-20T06:26:50;8.40;99.90
10123;DHT22;5101;49.038;8.710;2022-11-20T06:29:16;8.40;99.90
10123;DHT22;5101;49.038;8.710;2022-11-20T06:31:41;8.40;99.90
10123;DHT22;5101;49.038;8.710;2022-11-20T06:34:08;8.40;99.90
10123;DHT22;5101;49.038;8.710;2022-11-20T06:36:33;8.40;99.90
10123;DHT22;5101;49.038;8.710;2022-11-20T06:38:59;8.40;99.90
10123;DHT22;5101;49.038;8.710;2022-11-20T06:41:25;8.40;99.90
10123;DHT22;5101;49.038;8.710;2022-11-20T06:43:51;8.40;99.90
10123;DHT22;5101;49.038;8.710;2022-11-20T06:46:18;8.40;99.90
10123;DHT22;5101;49.038;8.710;2022-11-20T06:48:44;8.40;99.90
10123;DHT22;5101;49.038;8.710;2022-11-20T06:51:10;8.40;99.90
10123;DHT22;5101;49.038;8.710;2022-11-20T06:53:36;8.40;99.90
10123;DHT22;5101;49.038;8.710;2022-11-20T06:56:02;8.40;99.90
10123;DHT22;5101;49.038;8.710;2022-11-20T06:58:30;8.40;99.90
10123;DHT22;5101;49.038;8.710;2022-11-20T07:01:05;8.40;99.90
10123;DHT22;5101;49.038;8.710;2022-11-20T07:03:31;8.40;99.90
10123;DHT22;5101;49.038;8.710;2022-11-20T07:05:58;8.40;99.90
10123;DHT22;5101;49.038;8.710;2022-11-20T07:08:24;8.40;99.90
10123;DHT22;5101;49.038;8.710;2022-11-20T07:10:50;8.40;99.90
10123;DHT22;5101;49.038;8.710;2022-11-20T07:13:15;8.40;99.90
10123;DHT22;5101;49.038;8.710;2022-11-20T07:15:41;8.40;99.90
10123;DHT22;5101;49.038;8.710;2022-11-20T07:18:07;8.30;99.90
10123;DHT22;5101;49.038;8.710;2022-11-20T07:20:32;8.30;99.90
10123;DHT22;5101;49.038;8.710;2022-11-20T07:22:58;8.30;99.90
10123;DHT22;5101;49.038;8.710;2022-11-20T07:25:25;8.40;99.90
10123;DHT22;5101;49.038;8.710;2022-11-20T07:27:50;8.40;99.90
10123;DHT22;5101;49.038;8.710;2022-11-20T07:30:16;8.40;99.90
10123;DHT22;5101;49.038;8.710;2022-11-20T07:32:42;8.40;99.90
10123;DHT22;5101;49.038;8.710;2022-11-20T07:35:08;8.40;99.90
10123;DHT22;5101;49.038;8.710;2022-11-20T07:37:36;8.30;99.90
10123;DHT22;5101;49.038;8.710;2022-11-20T07:40:02;8.40;99.90
10123;DHT22;5101;49.038;8.710;2022-11-20T07:42:28;8.40;99.90
10123;DHT22;5101;49.038;8.710;2022-11-20T07:44:53;8.40;99.90
10123;DHT22;5101;49.038;8.710;2022-11-20T07:47:19;8.50;99.90
10123;DHT22;5101;49.038;8.710;2022-11-20T07:49:44;8.50;99.90
10123;DHT22;5101;49.038;8.710;2022-11-20T07:52:10;8.50;99.90
10123;DHT22;5101;49.038;8.710;2022-11-20T07:54:35;8.40;99.90
10123;DHT22;5101;49.038;8.710;2022-11-20T07:57:01;8.50;99.90
10123;DHT22;5101;49.038;8.710;2022-11-20T07:59:26;8.50;99.90
10123;DHT22;5101;49.038;8.710;2022-11-20T08:01:52;8.50;99.90
10123;DHT22;5101;49.038;8.710;2022-11-20T08:04:17;8.40;99.90
10123;DHT22;5101;49.038;8.710;2022-11-20T08:06:43;8.40;99.90
10123;DHT22;5101;49.038;8.710;2022-11-20T08:09:08;8.40;99.90
10123;DHT22;5101;49.038;8.710;2022-11-20T08:11:34;8.40;99.90
10123;DHT22;5101;49.038;8.710;2022-11-20T08:14:19;8.40;99.90
10123;DHT22;5101;49.038;8.710;2022-11-20T08:16:46;8.30;99.90
10123;DHT22;5101;49.038;8.710;2022-11-20T08:19:16;8.30;99.90
10123;DHT22;5101;49.038;8.710;2022-11-20T08:21:42;8.40;99.90
10123;DHT22;5101;49.038;8.710;2022-11-20T08:24:08;8.40;99.90
10123;DHT22;5101;49.038;8.710;2022-11-20T08:26:36;8.40;99.90
10123;DHT22;5101;49.038;8.710;2022-11-20T08:29:02;8.40;99.90
10123;DHT22;5101;49.038;8.710;2022-11-20T08:31:28;8.30;99.90
10123;DHT22;5101;49.038;8.710;2022-11-20T08:33:54;8.40;99.90
10123;DHT22;5101;49.038;8.710;2022-11-20T08:36:21;8.40;99.90
10123;DHT22;5101;49.038;8.710;2022-11-20T08:38:52;8.30;99.90
10123;DHT22;5101;49.038;8.710;2022-11-20T08:41:18;8.40;99.90
10123;DHT22;5101;49.038;8.710;2022-11-20T08:43:59;8.40;99.90
10123;DHT22;5101;49.038;8.710;2022-11-20T08:46:26;8.40;99.90
10123;DHT22;5101;49.038;8.710;2022-11-20T08:48:53;8.40;99.90
10123;DHT22;5101;49.038;8.710;2022-11-20T08:51:19;8.40;99.90
10123;DHT22;5101;49.038;8.710;2022-11-20T08:53:45;8.40;99.90
10123;DHT22;5101;49.038;8.710;2022-11-20T08:56:11;8.40;99.90
10123;DHT22;5101;49.038;8.710;2022-11-20T08:58:37;8.40;99.90
10123;DHT22;5101;49.038;8.710;2022-11-20T09:01:03;8.40;99.90
10123;DHT22;5101;49.038;8.710;2022-11-20T09:03:29;8.40;99.90
10123;DHT22;5101;49.038;8.710;2022-11-20T09:06:05;8.40;99.90
10123;DHT22;5101;49.038;8.710;2022-11-20T09:08:32;8.50;99.90
10123;DHT22;5101;49.038;8.710;2022-11-20T09:10:58;8.50;99.90
10123;DHT22;5101;49.038;8.710;2022-11-20T09:13:26;8.50;99.90
10123;DHT22;5101;49.038;8.710;2022-11-20T09:16:00;8.50;99.90
10123;DHT22;5101;49.038;8.710;2022-11-20T09:18:27;8.50;99.90
10123;DHT22;5101;49.038;8.710;2022-11-20T09:21:01;8.50;99.90
10123;DHT22;5101;49.038;8.710;2022-11-20T09:23:30;8.50;99.90
10123;DHT22;5101;49.038;8.710;2022-11-20T09:25:56;8.50;99.90
10123;DHT22;5101;49.038;8.710;2022-11-20T09:28:25;8.50;99.90
10123;DHT22;5101;49.038;8.710;2022-11-20T09:30:50;8.50;99.90
10123;DHT22;5101;49.038;8.710;2022-11-20T09:33:16;8.50;99.90
10123;DHT22;5101;49.038;8.710;2022-11-20T09:35:43;8.70;99.90
10123;DHT22;5101;49.038;8.710;2022-11-20T09:38:09;8.50;99.90
10123;DHT22;5101;49.038;8.710;2022-11-20T09:40:39;8.50;99.90
10123;DHT22;5101;49.038;8.710;2022-11-20T09:46:02;8.50;99.90
10123;DHT22;5101;49.038;8.710;2022-11-20T09:48:59;8.50;99.90
10123;DHT22;5101;49.038;8.710;2022-11-20T09:51:53;8.40;99.90
10123;DHT22;5101;49.038;8.710;2022-11-20T09:54:31;8.50;99.90
10123;DHT22;5101;49.038;8.710;2022-11-20T09:57:03;8.50;99.90
10123;DHT22;5101;49.038;8.710;2022-11-20T09:59:42;8.60;99.90
10123;DHT22;5101;49.038;8.710;2022-11-20T10:05:39;8.60;99.90
10123;DHT22;5101;49.038;8.710;2022-11-20T10:10:53;8.70;99.90
10123;DHT22;5101;49.038;8.710;2022-11-20T10:21:35;8.80;99.90
10123;DHT22;5101;49.038;8.710;2022-11-20T10:29:34;8.70;99.90
10123;DHT22;5101;49.038;8.710;2022-11-20T10:32:04;8.70;99.90
10123;DHT22;5101;49.038;8.710;2022-11-20T10:37:27;8.70;99.90
10123;DHT22;5101;49.038;8.710;2022-11-20T10:42:41;8.70;99.90
10123;DHT22;5101;49.038;8.710;2022-11-20T10:45:43;8.80;99.90
10123;DHT22;5101;49.038;8.710;2022-11-20T10:48:15;8.80;99.90
10123;DHT22;5101;49.038;8.710;2022-11-20T10:51:12;8.80;99.90
10123;DHT22;5101;49.038;8.710;2022-11-20T10:56:50;8.80;99.90
10123;DHT22;5101;49.038;8.710;2022-11-20T11:01:59;8.90;99.90
10123;DHT22;5101;49.038;8.710;2022-11-20T11:04:45;9.00;99.90
10123;DHT22;5101;49.038;8.710;2022-11-20T11:09:50;9.30;99.90
10123;DHT22;5101;49.038;8.710;2022-11-20T11:12:18;9.40;99.90
10123;DHT22;5101;49.038;8.710;2022-11-20T11:14:52;9.40;99.90
10123;DHT22;5101;49.038;8.710;2022-11-20T11:17:30;9.50;99.90
10123;DHT22;5101;49.038;8.710;2022-11-20T11:20:01;9.60;99.90
10123;DHT22;5101;49.038;8.710;2022-11-20T11:22:29;9.70;99.90
10123;DHT22;5101;49.038;8.710;2022-11-20T11:24:55;9.70;99.90
10123;DHT22;5101;49.038;8.710;2022-11-20T11:27:21;9.70;99.90
10123;DHT22;5101;49.038;8.710;2022-11-20T11:29:47;9.70;99.90
10123;DHT22;5101;49.038;8.710;2022-11-20T11:32:18;9.70;99.90
10123;DHT22;5101;49.038;8.710;2022-11-20T11:34:45;9.70;99.90
10123;DHT22;5101;49.038;8.710;2022-11-20T11:37:17;9.70;99.90
10123;DHT22;5101;49.038;8.710;2022-11-20T11:39:44;9.70;99.90
10123;DHT22;5101;49.038;8.710;2022-11-20T11:42:16;9.80;99.90
10123;DHT22;5101;49.038;8.710;2022-11-20T11:44:47;9.70;99.90
10123;DHT22;5101;49.038;8.710;2022-11-20T11:47:52;9.80;99.90
10123;DHT22;5101;49.038;8.710;2022-11-20T11:53:03;9.90;99.90
10123;DHT22;5101;49.038;8.710;2022-11-20T11:55:57;10.00;99.90
10123;DHT22;5101;49.038;8.710;2022-11-20T11:58:40;10.00;99.90
10123;DHT22;5101;49.038;8.710;2022-11-20T12:05:00;10.30;99.90
10123;DHT22;5101;49.038;8.710;2022-11-20T12:07:31;10.40;99.90
10123;DHT22;5101;49.038;8.710;2022-11-20T12:09:58;10.40;99.90
10123;DHT22;5101;49.038;8.710;2022-11-20T12:12:32;10.30;99.90
10123;DHT22;5101;49.038;8.710;2022-11-20T12:15:00;10.30;99.90
10123;DHT22;5101;49.038;8.710;2022-11-20T12:17:26;10.30;99.90
10123;DHT22;5101;49.038;8.710;2022-11-20T12:19:51;10.30;99.90
10123;DHT22;5101;49.038;8.710;2022-11-20T12:22:34;10.30;99.90
10123;DHT22;5101;49.038;8.710;2022-11-20T12:25:25;10.30;99.90
10123;DHT22;5101;49.038;8.710;2022-11-20T12:28:19;10.40;99.90
10123;DHT22;5101;49.038;8.710;2022-11-20T12:36:19;10.60;99.90
10123;DHT22;5101;49.038;8.710;2022-11-20T12:39:02;10.70;99.90
10123;DHT22;5101;49.038;8.710;2022-11-20T12:41:44;10.90;99.90
10123;DHT22;5101;49.038;8.710;2022-11-20T12:44:48;11.00;99.90
10123;DHT22;5101;49.038;8.710;2022-11-20T12:48:07;11.10;99.90
10123;DHT22;5101;49.038;8.710;2022-11-20T12:53:56;11.20;99.90
10123;DHT22;5101;49.038;8.710;2022-11-20T12:56:41;11.20;99.90
10123;DHT22;5101;49.038;8.710;2022-11-20T13:07:07;11.30;99.30
10123;DHT22;5101;49.038;8.710;2022-11-20T13:09:40;11.30;99.00
10123;DHT22;5101;49.038;8.710;2022-11-20T13:12:11;11.30;98.50
10123;DHT22;5101;49.038;8.710;2022-11-20T13:14:53;11.30;97.60
10123;DHT22;5101;49.038;8.710;2022-11-20T13:17:44;11.30;96.70
10123;DHT22;5101;49.038;8.710;2022-11-20T13:20:16;11.20;95.40
10123;DHT22;5101;49.038;8.710;2022-11-20T13:22:54;11.20;94.80
10123;DHT22;5101;49.038;8.710;2022-11-20T13:25:37;10.90;94.20
10123;DHT22;5101;49.038;8.710;2022-11-20T13:30:35;11.00;93.40
10123;DHT22;5101;49.038;8.710;2022-11-20T13:33:08;11.00;93.30
10123;DHT22;5101;49.038;8.710;2022-11-20T13:35:41;11.00;92.90
10123;DHT22;5101;49.038;8.710;2022-11-20T13:38:11;11.00;92.70
10123;DHT22;5101;49.038;8.710;2022-11-20T13:40:58;10.90;92.60
10123;DHT22;5101;49.038;8.710;2022-11-20T13:43:28;10.90;92.30
10123;DHT22;5101;49.038;8.710;2022-11-20T13:46:04;10.80;92.00
10123;DHT22;5101;49.038;8.710;2022-11-20T13:48:33;10.80;91.80
10123;DHT22;5101;49.038;8.710;2022-11-20T13:51:13;10.70;91.60
10123;DHT22;5101;49.038;8.710;2022-11-20T13:58:55;10.60;91.10
10123;DHT22;5101;49.038;8.710;2022-11-20T14:01:26;10.60;90.90
10123;DHT22;5101;49.038;8.710;2022-11-20T14:03:52;10.60;90.80
10123;DHT22;5101;49.038;8.710;2022-11-20T14:06:30;10.60;90.70
10123;DHT22;5101;49.038;8.710;2022-11-20T14:08:58;10.50;90.50
10123;DHT22;5101;49.038;8.710;2022-11-20T14:11:26;10.50;90.60
10123;DHT22;5101;49.038;8.710;2022-11-20T14:16:24;10.50;90.60
10123;DHT22;5101;49.038;8.710;2022-11-20T14:18:49;10.40;90.40
10123;DHT22;5101;49.038;8.710;2022-11-20T14:21:41;10.30;90.30
10123;DHT22;5101;49.038;8.710;2022-11-20T14:24:10;10.20;90.40
10123;DHT22;5101;49.038;8.710;2022-11-20T14:26:38;10.20;90.50
10123;DHT22;5101;49.038;8.710;2022-11-20T14:29:15;10.10;90.40
10123;DHT22;5101;49.038;8.710;2022-11-20T14:31:42;10.10;90.30
10123;DHT22;5101;49.038;8.710;2022-11-20T14:34:25;10.10;90.30
10123;DHT22;5101;49.038;8.710;2022-11-20T14:36:58;10.00;90.30
10123;DHT22;5101;49.038;8.710;2022-11-20T14:39:35;10.00;90.40
10123;DHT22;5101;49.038;8.710;2022-11-20T14:42:01;10.00;90.30
10123;DHT22;5101;49.038;8.710;2022-11-20T14:44:31;10.00;90.30
10123;DHT22;5101;49.038;8.710;2022-11-20T14:46:59;10.10;90.30
10123;DHT22;5101;49.038;8.710;2022-11-20T14:49:25;10.10;90.40
10123;DHT22;5101;49.038;8.710;2022-11-20T14:51:59;10.10;90.50
10123;DHT22;5101;49.038;8.710;2022-11-20T14:54:25;10.10;90.40
10123;DHT22;5101;49.038;8.710;2022-11-20T14:56:59;10.10;90.40
10123;DHT22;5101;49.038;8.710;2022-11-20T14:59:27;10.10;90.40
10123;DHT22;5101;49.038;8.710;2022-11-20T15:02:01;10.00;90.40
10123;DHT22;5101;49.038;8.710;2022-11-20T15:04:27;10.00;90.40
10123;DHT22;5101;49.038;8.710;2022-11-20T15:06:55;9.90;90.80
10123;DHT22;5101;49.038;8.710;2022-11-20T15:09:22;9.90;90.80
10123;DHT22;5101;49.038;8.710;2022-11-20T15:11:56;9.80;90.80
10123;DHT22;5101;49.038;8.710;2022-11-20T15:14:23;9.80;90.70
10123;DHT22;5101;49.038;8.710;2022-11-20T15:16:50;9.80;90.80
10123;DHT22;5101;49.038;8.710;2022-11-20T15:19:21;9.70;90.60
10123;DHT22;5101;49.038;8.710;2022-11-20T15:21:47;9.70;90.40
10123;DHT22;5101;49.038;8.710;2022-11-20T15:24:13;9.70;90.50
10123;DHT22;5101;49.038;8.710;2022-11-20T15:26:38;9.70;90.40
10123;DHT22;5101;49.038;8.710;2022-11-20T15:29:14;9.60;90.40
10123;DHT22;5101;49.038;8.710;2022-11-20T15:31:43;9.60;90.40
10123;DHT22;5101;49.038;8.710;2022-11-20T15:34:15;9.60;90.40
10123;DHT22;5101;49.038;8.710;2022-11-20T15:36:41;9.60;90.40
10123;DHT22;5101;49.038;8.710;2022-11-20T15:39:07;9.60;90.40
10123;DHT22;5101;49.038;8.710;2022-11-20T15:41:37;9.50;90.30
10123;DHT22;5101;49.038;8.710;2022-11-20T15:44:04;9.50;90.30
10123;DHT22;5101;49.038;8.710;2022-11-20T15:46:32;9.50;90.40
10123;DHT22;5101;49.038;8.710;2022-11-20T15:49:02;9.40;90.50
10123;DHT22;5101;49.038;8.710;2022-11-20T15:51:33;9.40;90.50
10123;DHT22;5101;49.038;8.710;2022-11-20T15:53:59;9.40;90.40
10123;DHT22;5101;49.038;8.710;2022-11-20T15:56:25;9.40;90.50
10123;DHT22;5101;49.038;8.710;2022-11-20T15:58:51;9.40;90.50
10123;DHT22;5101;49.038;8.710;2022-11-20T16:01:19;9.40;90.60
10123;DHT22;5101;49.038;8.710;2022-11-20T16:03:46;9.30;90.60
10123;DHT22;5101;49.038;8.710;2022-11-20T16:06:11;9.30;90.60
10123;DHT22;5101;49.038;8.710;2022-11-20T16:08:37;9.30;90.60
10123;DHT22;5101;49.038;8.710;2022-11-20T16:11:03;9.30;90.50
10123;DHT22;5101;49.038;8.710;2022-11-20T16:13:31;9.30;90.40
10123;DHT22;5101;49.038;8.710;2022-11-20T16:16:27;9.30;90.60
10123;DHT22;5101;49.038;8.710;2022-11-20T16:18:54;9.30;90.60
10123;DHT22;5101;49.038;8.710;2022-11-20T16:21:20;9.20;90.80
10123;DHT22;5101;49.038;8.710;2022-11-20T16:23:45;9.20;90.50
10123;DHT22;5101;49.038;8.710;2022-11-20T16:26:13;9.20;90.50
10123;DHT22;5101;49.038;8.710;2022-11-20T16:28:39;9.20;90.80
10123;DHT22;5101;49.038;8.710;2022-11-20T16:31:12;9.20;90.50
10123;DHT22;5101;49.038;8.710;2022-11-20T16:33:38;9.20;90.50
10123;DHT22;5101;49.038;8.710;2022-11-20T16:36:12;9.20;90.50
10123;DHT22;5101;49.038;8.710;2022-11-20T16:38:37;9.10;90.50
10123;DHT22;5101;49.038;8.710;2022-11-20T16:41:04;9.20;90.50
10123;DHT22;5101;49.038;8.710;2022-11-20T16:43:30;9.20;90.50
10123;DHT22;5101;49.038;8.710;2022-11-20T16:45:55;9.20;90.50
10123;DHT22;5101;49.038;8.710;2022-11-20T16:48:21;9.20;90.50
10123;DHT22;5101;49.038;8.710;2022-11-20T16:50:49;9.20;90.50
10123;DHT22;5101;49.038;8.710;2022-11-20T16:53:16;9.20;90.50
10123;DHT22;5101;49.038;8.710;2022-11-20T16:55:41;9.20;90.90
10123;DHT22;5101;49.038;8.710;2022-11-20T16:58:07;9.50;91.80
10123;DHT22;5101;49.038;8.710;2022-11-20T17:00:38;9.40;92.60
10123;DHT22;5101;49.038;8.710;2022-11-20T17:03:05;9.40;92.50
10123;DHT22;5101;49.038;8.710;2022-11-20T17:05:31;9.40;92.30
10123;DHT22;5101;49.038;8.710;2022-11-20T17:07:57;9.40;92.30
10123;DHT22;5101;49.038;8.710;2022-11-20T17:10:23;9.40;92.40
10123;DHT22;5101;49.038;8.710;2022-11-20T17:12:48;9.50;92.40
10123;DHT22;5101;49.038;8.710;2022-11-20T17:15:14;9.50;92.50
10123;DHT22;5101;49.038;8.710;2022-11-20T17:17:39;9.50;92.40
10123;DHT22;5101;49.038;8.710;2022-11-20T17:20:05;9.50;92.30
10123;DHT22;5101;49.038;8.710;2022-11-20T17:22:31;9.50;92.40
10123;DHT22;5101;49.038;8.710;2022-11-20T17:24:56;9.50;92.60